createdAt,value
2018-07-27T00:00:08.318Z,33.9
2018-07-27T00:10:53.810Z,33.8
2018-07-27T00:21:06.222Z,34.4
2018-07-27T00:31:51.905Z,34.8
2018-07-27T00:42:06.504Z,35.4
2018-07-27T00:52:20.053Z,35.0
2018-07-27T01:02:34.479Z,35.9
2018-07-27T01:12:48.838Z,35.9
2018-07-27T01:23:03.089Z,36.4
2018-07-27T01:33:17.102Z,37.4
2018-07-27T01:44:02.698Z,39.4
2018-07-27T01:54:17.106Z,37.8
2018-07-27T02:04:29.293Z,36.4
2018-07-27T02:15:15.023Z,37.1
2018-07-27T02:25:29.084Z,36.4
2018-07-27T02:35:40.687Z,36.9
2018-07-27T02:46:26.216Z,37.1
2018-07-27T02:56:37.676Z,36.8
2018-07-27T03:07:22.903Z,38.2
2018-07-27T03:18:07.699Z,37.9
2018-07-27T03:28:53.589Z,38.9
2018-07-27T03:39:08.581Z,40.1
2018-07-27T03:49:22.246Z,40.3
2018-07-27T03:59:36.805Z,40.2
2018-07-27T04:10:22.159Z,39.2
2018-07-27T04:21:07.845Z,39.0
2018-07-27T04:31:53.400Z,38.1
2018-07-27T04:42:39.414Z,38.4
2018-07-27T04:53:25.041Z,37.9
2018-07-27T05:04:11.237Z,37.9
2018-07-27T05:14:25.187Z,39.0
2018-07-27T05:24:39.473Z,39.9
2018-07-27T05:35:24.941Z,43.8
2018-07-27T05:46:10.828Z,42.3
2018-07-27T05:56:56.554Z,41.8
2018-07-27T06:07:42.497Z,40.8
2018-07-27T06:18:30.285Z,41.1
2018-07-27T06:29:16.226Z,41.7
2018-07-27T06:40:03.714Z,42.3
2018-07-27T06:50:49.178Z,42.3
2018-07-27T07:01:03.111Z,42.1
2018-07-27T07:11:48.095Z,43.5
2018-07-27T07:22:01.673Z,42.5
2018-07-27T07:32:47.214Z,43.9
2018-07-27T07:43:32.982Z,41.4
2018-07-27T07:54:18.684Z,36.6
2018-07-27T08:05:04.094Z,33.2
2018-07-27T08:15:17.795Z,30.9
2018-07-27T08:26:03.396Z,28.7
2018-07-27T08:36:14.503Z,27.5
2018-07-27T08:46:29.574Z,26.5
2018-07-27T08:56:43.274Z,25.6
2018-07-27T09:06:57.857Z,25.1
2018-07-27T09:17:11.506Z,24.2
2018-07-27T09:27:25.716Z,23.7
2018-07-27T09:37:40.153Z,23.2
2018-07-27T09:48:25.513Z,22.8
2018-07-27T09:59:10.975Z,22.5
2018-07-27T10:09:24.551Z,22.1
2018-07-27T10:19:38.790Z,21.4
2018-07-27T10:30:24.325Z,21.4
2018-07-27T10:41:13.152Z,20.5
2018-07-27T10:51:28.342Z,19.8
2018-07-27T11:01:42.357Z,19.1
2018-07-27T11:11:56.083Z,18.2
2018-07-27T11:22:10.085Z,19.1
2018-07-27T11:32:25.843Z,18.2
2018-07-27T11:42:39.655Z,18.9
2018-07-27T11:53:25.375Z,17.7
2018-07-27T12:04:11.375Z,18.3
2018-07-27T12:14:57.161Z,18.4
2018-07-27T12:25:43.067Z,18.2
2018-07-27T12:36:28.634Z,18.1
2018-07-27T12:47:14.300Z,18.4
2018-07-27T12:58:01.196Z,18.4
2018-07-27T13:08:13.380Z,18.6
2018-07-27T13:20:11.102Z,19.0
2018-07-27T13:58:23.029Z,18.2
2018-07-27T14:11:44.055Z,18.2
2018-07-27T14:24:27.396Z,18.1
2018-07-27T14:46:43.093Z,18.0
2018-07-27T14:58:04.094Z,17.2
2018-07-27T15:09:44.900Z,16.8
2018-07-27T15:20:52.883Z,16.1
2018-07-27T15:32:22.639Z,16.6
2018-07-27T15:44:13.286Z,16.9
2018-07-27T15:54:27.143Z,17.1
2018-07-27T16:04:41.203Z,17.6
2018-07-27T16:14:55.408Z,18.0
2018-07-27T16:25:40.931Z,18.4
2018-07-27T16:35:54.179Z,18.9
2018-07-27T16:46:07.567Z,19.5
2018-07-27T16:56:53.380Z,20.2
2018-07-27T17:07:04.436Z,20.4
2018-07-27T17:17:18.760Z,21.0
2018-07-27T17:27:32.813Z,21.4
2018-07-27T17:37:46.738Z,21.8
2018-07-27T17:48:00.264Z,22.4
2018-07-27T17:58:14.742Z,22.5
2018-07-27T18:09:00.625Z,22.7
2018-07-27T18:19:14.656Z,23.1
2018-07-27T18:29:28.786Z,23.5
2018-07-27T18:39:43.134Z,23.8
2018-07-27T18:50:29.315Z,24.0
2018-07-27T19:00:43.513Z,24.4
2018-07-27T19:11:28.890Z,24.7
2018-07-27T19:22:14.472Z,25.1
2018-07-27T19:32:31.777Z,25.5
2018-07-27T19:42:45.592Z,25.8
2018-07-27T19:53:02.257Z,26.3
2018-07-27T20:03:16.704Z,26.6
2018-07-27T20:13:30.701Z,26.9
2018-07-27T20:23:44.779Z,27.3
2018-07-27T20:33:59.096Z,27.5
2018-07-27T20:44:45.750Z,27.9
2018-07-27T20:54:59.260Z,28.2
2018-07-27T21:05:13.201Z,28.8
2018-07-27T21:15:26.938Z,28.8
2018-07-27T21:25:41.602Z,29.0
2018-07-27T21:35:54.972Z,29.3
2018-07-27T21:46:09.234Z,29.8
2018-07-27T21:56:21.076Z,29.7
2018-07-27T22:06:34.733Z,30.1
2018-07-27T22:16:48.695Z,30.2
2018-07-27T22:27:33.515Z,31.0
2018-07-27T22:37:47.940Z,30.9
2018-07-27T22:48:02.339Z,31.1
2018-07-27T22:58:17.261Z,31.1
2018-07-27T23:08:28.754Z,31.3
2018-07-27T23:19:14.137Z,31.6
2018-07-27T23:29:27.554Z,31.8
2018-07-27T23:39:41.839Z,31.7
2018-07-27T23:49:55.832Z,31.8
